Time;durP1;ratioP1;P1;durP2;ratioP2;P2;SDS_P1;SDS_P2;PMS_P1;PMS_P2;Temp;Humidity;BMP_temperature;BMP_pressure;BME280_temperature;BME280_humidity;BME280_pressure;Samples;Min_cycle;Max_cycle;Signal;HPM_P1;HPM_P2
2021/07/09 00:01:29;;;;;;;8.45;7.22;;;17.00;99.90;;;;;;5045180;28;20031;-58
2021/07/09 00:03:55;;;;;;;8.68;6.65;;;16.90;99.90;;;;;;5036159;28;20021;-59
2021/07/09 00:06:21;;;;;;;7.80;7.00;;;16.90;99.90;;;;;;5056185;28;20016;-60
2021/07/09 00:08:48;;;;;;;8.30;6.65;;;16.90;99.90;;;;;;5044463;28;20023;-60
2021/07/09 00:11:15;;;;;;;7.25;6.55;;;16.80;99.90;;;;;;5038591;28;20447;-60
2021/07/09 00:13:41;;;;;;;7.45;6.75;;;16.70;99.90;;;;;;5050065;28;20025;-60
2021/07/09 00:16:07;;;;;;;7.78;6.53;;;16.70;99.90;;;;;;5039864;28;20112;-59
2021/07/09 00:18:33;;;;;;;7.85;7.07;;;16.70;99.90;;;;;;5062878;28;20032;-58
2021/07/09 00:20:58;;;;;;;9.40;7.30;;;16.70;99.90;;;;;;5058787;28;20021;-59
2021/07/09 00:23:24;;;;;;;7.82;7.13;;;16.70;99.90;;;;;;5060804;28;20090;-59
2021/07/09 00:25:50;;;;;;;8.13;7.32;;;16.70;99.90;;;;;;5061355;28;20033;-59
2021/07/09 00:28:15;;;;;;;9.65;7.72;;;16.70;99.90;;;;;;5062702;28;20070;-59
2021/07/09 00:30:41;;;;;;;8.70;7.15;;;16.70;99.90;;;;;;5062879;28;20025;-59
2021/07/09 00:33:06;;;;;;;11.23;8.15;;;16.70;99.90;;;;;;5066391;28;20025;-59
2021/07/09 00:35:32;;;;;;;10.60;7.78;;;16.70;99.90;;;;;;5056484;28;20030;-59
2021/07/09 00:37:57;;;;;;;9.75;7.50;;;16.70;99.90;;;;;;5054951;28;20035;-58
2021/07/09 00:40:23;;;;;;;8.00;6.90;;;16.70;99.90;;;;;;5066128;28;20371;-58
2021/07/09 00:42:48;;;;;;;7.80;6.97;;;16.70;99.90;;;;;;5059938;28;20021;-60
2021/07/09 00:45:15;;;;;;;10.00;7.47;;;16.80;99.90;;;;;;5061497;28;20020;-60
2021/07/09 00:47:44;;;;;;;7.70;6.82;;;16.80;99.90;;;;;;5062024;28;20027;-60
2021/07/09 00:50:11;;;;;;;7.65;6.95;;;16.80;99.90;;;;;;5061551;28;20040;-61
2021/07/09 00:52:37;;;;;;;9.75;7.18;;;16.70;99.90;;;;;;5062098;28;20063;-60
2021/07/09 00:55:04;;;;;;;7.22;6.50;;;16.80;99.90;;;;;;5059264;28;20056;-60
2021/07/09 00:57:30;;;;;;;7.70;6.90;;;16.70;99.90;;;;;;5061977;28;20036;-60
2021/07/09 00:59:55;;;;;;;8.55;7.03;;;16.80;99.90;;;;;;5060976;28;20377;-61
2021/07/09 01:02:23;;;;;;;7.93;7.05;;;16.70;99.90;;;;;;5060720;28;20113;-60
2021/07/09 01:04:49;;;;;;;7.13;6.43;;;16.70;99.90;;;;;;5061038;28;20016;-56
2021/07/09 01:07:14;;;;;;;7.03;6.32;;;16.60;99.90;;;;;;5053212;28;20036;-56
2021/07/09 01:09:40;;;;;;;9.68;7.40;;;16.60;99.90;;;;;;5064661;28;20418;-56
2021/07/09 01:12:05;;;;;;;8.00;7.18;;;16.70;99.90;;;;;;5059621;28;20223;-56
2021/07/09 01:14:31;;;;;;;11.82;7.53;;;16.70;99.90;;;;;;5060029;28;20029;-56
2021/07/09 01:16:56;;;;;;;8.73;7.82;;;16.60;99.90;;;;;;5056983;28;20111;-56
2021/07/09 01:19:22;;;;;;;10.70;7.80;;;16.60;99.90;;;;;;5058692;28;20095;-56
2021/07/09 01:21:49;;;;;;;9.52;8.50;;;16.70;99.90;;;;;;5063719;28;20332;-56
2021/07/09 01:24:16;;;;;;;9.20;7.80;;;16.60;99.90;;;;;;5058009;28;20027;-56
2021/07/09 01:26:42;;;;;;;8.77;7.25;;;16.60;99.90;;;;;;5062467;28;20432;-56
2021/07/09 01:29:08;;;;;;;11.07;7.38;;;16.60;99.90;;;;;;5059585;28;20205;-56
2021/07/09 01:31:35;;;;;;;9.80;7.45;;;16.60;99.90;;;;;;5062734;28;20025;-56
2021/07/09 01:34:02;;;;;;;8.77;7.90;;;16.70;99.90;;;;;;5059495;28;20111;-56
2021/07/09 01:36:28;;;;;;;8.80;7.90;;;16.70;99.90;;;;;;5044483;28;20075;-56
2021/07/09 01:38:53;;;;;;;9.50;8.07;;;16.60;99.90;;;;;;5064102;28;20039;-56
2021/07/09 01:41:20;;;;;;;8.40;7.13;;;16.60;99.90;;;;;;5060856;28;20017;-56
2021/07/09 01:43:46;;;;;;;7.60;6.90;;;16.70;99.90;;;;;;5063028;28;20021;-56
2021/07/09 01:46:11;;;;;;;17.17;7.88;;;16.70;99.90;;;;;;5058213;28;20036;-56
2021/07/09 01:48:37;;;;;;;10.15;8.23;;;16.60;99.90;;;;;;5063144;28;20085;-56
2021/07/09 01:51:03;;;;;;;9.43;7.82;;;16.60;99.90;;;;;;5059585;28;20506;-56
2021/07/09 01:53:29;;;;;;;7.57;6.88;;;16.60;99.90;;;;;;5057167;28;20154;-56
2021/07/09 01:55:55;;;;;;;8.55;7.32;;;16.70;99.90;;;;;;5063820;28;20033;-56
2021/07/09 01:58:21;;;;;;;8.70;7.80;;;16.70;99.90;;;;;;5057586;28;20085;-56
2021/07/09 02:00:47;;;;;;;8.75;7.80;;;16.70;99.90;;;;;;5063926;28;20092;-56
2021/07/09 02:03:13;;;;;;;8.52;7.25;;;16.70;99.90;;;;;;5057375;28;20390;-57
2021/07/09 02:05:39;;;;;;;8.95;8.10;;;16.70;99.90;;;;;;5051661;28;20160;-56
2021/07/09 02:08:05;;;;;;;11.07;8.18;;;16.70;99.90;;;;;;5062455;28;20032;-56
2021/07/09 02:10:34;;;;;;;9.82;8.82;;;16.70;99.90;;;;;;5057800;28;20497;-56
2021/07/09 02:13:00;;;;;;;8.85;7.95;;;16.70;99.90;;;;;;5042818;28;20036;-57
2021/07/09 02:15:30;;;;;;;10.32;9.23;;;16.70;99.90;;;;;;5029506;28;20025;-56
2021/07/09 02:17:55;;;;;;;10.25;8.60;;;16.70;99.90;;;;;;5031814;28;20036;-57
2021/07/09 02:20:23;;;;;;;11.25;10.05;;;16.70;99.90;;;;;;5029909;28;20021;-56
2021/07/09 02:22:48;;;;;;;10.32;9.13;;;16.70;99.90;;;;;;5030342;28;20045;-56
2021/07/09 02:25:15;;;;;;;11.13;9.85;;;16.70;99.90;;;;;;5030705;28;20430;-56
2021/07/09 02:27:42;;;;;;;10.35;9.25;;;16.80;99.90;;;;;;5029712;28;20030;-56
2021/07/09 02:30:11;;;;;;;10.48;9.27;;;16.70;99.90;;;;;;5029956;28;20075;-56
2021/07/09 02:32:37;;;;;;;11.18;10.07;;;16.80;99.90;;;;;;5029984;28;20025;-56
2021/07/09 02:35:05;;;;;;;11.95;9.68;;;16.80;99.90;;;;;;5030882;28;20037;-56
2021/07/09 02:37:31;;;;;;;12.02;10.73;;;16.70;99.90;;;;;;5029216;28;20450;-56
2021/07/09 02:39:56;;;;;;;16.83;10.82;;;16.70;99.90;;;;;;5031352;28;20096;-56
2021/07/09 02:42:21;;;;;;;12.50;10.10;;;16.70;99.90;;;;;;5030252;28;20183;-56
2021/07/09 02:44:47;;;;;;;12.32;10.35;;;16.70;99.90;;;;;;5029765;28;20101;-57
2021/07/09 02:47:13;;;;;;;11.15;10.05;;;16.70;99.90;;;;;;5029489;28;20543;-56
2021/07/09 02:49:39;;;;;;;15.00;11.57;;;16.70;99.90;;;;;;5029558;28;20037;-56
2021/07/09 02:52:05;;;;;;;11.45;9.88;;;16.60;99.90;;;;;;5030674;28;20044;-56
2021/07/09 02:54:31;;;;;;;11.70;10.45;;;16.50;99.90;;;;;;5029363;28;20157;-57
2021/07/09 02:56:56;;;;;;;12.68;11.00;;;16.50;99.90;;;;;;5033573;28;20529;-57
2021/07/09 02:59:22;;;;;;;13.38;10.98;;;16.50;99.90;;;;;;5032743;28;20021;-64
2021/07/09 03:01:47;;;;;;;12.57;10.63;;;16.40;99.90;;;;;;5031790;28;20013;-56
2021/07/09 03:04:14;;;;;;;11.95;10.80;;;16.40;99.90;;;;;;5033478;28;20024;-57
2021/07/09 03:06:40;;;;;;;11.77;10.55;;;16.50;99.90;;;;;;5036112;28;20553;-56
2021/07/09 03:09:06;;;;;;;13.75;10.50;;;16.40;99.90;;;;;;5032566;28;20437;-57
2021/07/09 03:11:32;;;;;;;21.63;13.13;;;16.40;99.90;;;;;;5030311;28;20033;-56
2021/07/09 03:13:58;;;;;;;12.45;11.13;;;16.40;99.90;;;;;;5032752;28;20057;-57
2021/07/09 03:16:24;;;;;;;13.85;11.32;;;16.40;99.90;;;;;;5033316;28;20063;-56
2021/07/09 03:18:49;;;;;;;11.50;10.30;;;16.40;99.90;;;;;;5035330;28;20055;-57
2021/07/09 03:21:15;;;;;;;12.00;10.70;;;16.40;99.90;;;;;;5045306;28;20032;-57
2021/07/09 03:23:40;;;;;;;11.55;10.50;;;16.40;99.90;;;;;;5037028;28;20036;-57
2021/07/09 03:26:06;;;;;;;15.70;11.20;;;16.40;99.90;;;;;;5047160;28;20049;-57
2021/07/09 03:28:31;;;;;;;11.95;10.77;;;16.40;99.90;;;;;;5044797;28;20043;-56
2021/07/09 03:30:57;;;;;;;13.20;11.73;;;16.40;99.90;;;;;;5036414;28;20112;-57
2021/07/09 03:33:22;;;;;;;14.23;11.20;;;16.40;99.90;;;;;;5037110;28;20135;-57
2021/07/09 03:35:48;;;;;;;12.88;10.50;;;16.40;99.90;;;;;;5037613;28;20324;-57
2021/07/09 03:38:14;;;;;;;11.50;10.30;;;16.40;99.90;;;;;;5046286;28;20454;-57
2021/07/09 03:40:40;;;;;;;13.57;10.90;;;16.50;99.90;;;;;;5049459;28;20040;-56
2021/07/09 03:43:05;;;;;;;10.25;9.25;;;16.50;99.90;;;;;;5045737;28;20025;-57
2021/07/09 03:45:31;;;;;;;11.80;10.43;;;16.50;99.90;;;;;;5038677;28;20471;-56
2021/07/09 03:47:58;;;;;;;11.15;10.00;;;16.50;99.90;;;;;;5051434;28;20035;-56
2021/07/09 03:50:23;;;;;;;13.15;11.75;;;16.50;99.90;;;;;;5057461;28;20378;-56
2021/07/09 03:52:49;;;;;;;14.02;12.02;;;16.50;99.90;;;;;;5060387;28;20188;-56
2021/07/09 03:55:14;;;;;;;12.95;11.48;;;16.60;99.90;;;;;;5050065;28;20236;-56
2021/07/09 03:57:40;;;;;;;14.48;11.10;;;16.60;99.90;;;;;;5058343;28;20490;-56
2021/07/09 04:00:08;;;;;;;12.40;10.43;;;16.60;99.90;;;;;;5052897;28;20017;-55
2021/07/09 04:02:34;;;;;;;14.38;10.80;;;16.60;99.90;;;;;;5058409;28;20032;-56
2021/07/09 04:04:59;;;;;;;14.68;11.27;;;16.60;99.90;;;;;;5054446;28;20021;-55
2021/07/09 04:07:25;;;;;;;12.55;10.93;;;16.70;99.90;;;;;;5059789;28;20036;-56
2021/07/09 04:09:50;;;;;;;14.70;11.32;;;16.70;99.90;;;;;;5057308;28;20025;-56
2021/07/09 04:12:16;;;;;;;14.82;10.23;;;16.70;99.90;;;;;;5050293;28;20060;-56
2021/07/09 04:14:41;;;;;;;15.40;11.05;;;16.70;99.90;;;;;;5057454;28;20032;-56
2021/07/09 04:17:07;;;;;;;16.90;10.45;;;16.80;99.90;;;;;;5053162;28;20064;-56
2021/07/09 04:19:32;;;;;;;11.23;9.98;;;16.90;99.90;;;;;;5052735;28;20485;-56
2021/07/09 04:21:58;;;;;;;15.70;11.05;;;16.90;99.90;;;;;;5066121;28;20017;-56
2021/07/09 04:24:23;;;;;;;12.65;11.35;;;16.90;99.90;;;;;;5061036;28;20082;-56
2021/07/09 04:26:49;;;;;;;10.73;8.95;;;16.90;99.90;;;;;;5065746;28;20126;-56
2021/07/09 04:29:14;;;;;;;15.55;10.32;;;16.90;99.90;;;;;;5059409;28;20585;-56
2021/07/09 04:31:40;;;;;;;12.63;11.32;;;16.90;99.90;;;;;;5065485;28;20021;-56
2021/07/09 04:34:06;;;;;;;13.90;10.80;;;16.90;99.90;;;;;;5059834;28;20035;-56
2021/07/09 04:36:31;;;;;;;17.88;11.63;;;16.90;99.90;;;;;;5059018;28;20068;-56
2021/07/09 04:38:56;;;;;;;13.65;11.15;;;16.90;99.90;;;;;;5064974;28;20032;-58
2021/07/09 04:41:22;;;;;;;11.35;10.02;;;16.90;99.90;;;;;;5058794;28;20028;-56
2021/07/09 04:43:47;;;;;;;12.32;10.70;;;17.00;99.90;;;;;;5065016;28;20032;-56
2021/07/09 04:46:13;;;;;;;12.77;10.88;;;17.00;99.90;;;;;;5059501;28;20364;-56
2021/07/09 04:48:39;;;;;;;13.77;10.88;;;17.10;99.90;;;;;;5061660;28;20615;-56
2021/07/09 04:51:04;;;;;;;11.82;10.40;;;17.10;99.90;;;;;;5054220;28;20051;-56
2021/07/09 04:53:31;;;;;;;12.32;10.48;;;17.20;99.90;;;;;;5041185;28;20517;-55
2021/07/09 04:55:57;;;;;;;11.57;10.25;;;17.20;99.90;;;;;;5041228;28;20180;-56
2021/07/09 04:58:22;;;;;;;12.20;10.68;;;17.30;99.90;;;;;;5037740;28;20100;-56
2021/07/09 05:00:48;;;;;;;15.00;10.90;;;17.30;99.90;;;;;;5045274;28;20025;-55
2021/07/09 05:03:14;;;;;;;15.02;11.10;;;17.40;99.90;;;;;;5033627;28;20056;-56
2021/07/09 05:05:40;;;;;;;13.38;11.40;;;17.40;99.90;;;;;;5041364;28;20478;-56
2021/07/09 05:08:06;;;;;;;15.75;11.73;;;17.30;99.90;;;;;;5038036;28;20040;-56
2021/07/09 05:10:32;;;;;;;11.70;10.50;;;17.40;99.90;;;;;;5036469;28;20022;-57
2021/07/09 05:12:57;;;;;;;12.70;11.43;;;17.40;99.90;;;;;;5038274;28;20257;-56
2021/07/09 05:15:23;;;;;;;12.15;10.63;;;17.40;99.90;;;;;;5037658;28;20029;-56
2021/07/09 05:17:48;;;;;;;12.45;11.15;;;17.40;99.90;;;;;;5037867;28;20032;-56
2021/07/09 05:20:14;;;;;;;15.10;11.75;;;17.40;99.90;;;;;;5038547;28;20070;-57
2021/07/09 05:22:40;;;;;;;11.10;10.00;;;17.50;99.90;;;;;;5032461;28;20025;-57
2021/07/09 05:25:07;;;;;;;13.82;11.68;;;17.50;99.90;;;;;;5031906;28;20030;-57
2021/07/09 05:27:32;;;;;;;12.85;10.65;;;17.60;99.90;;;;;;5042210;28;20033;-56
2021/07/09 05:29:59;;;;;;;12.88;11.50;;;17.60;99.90;;;;;;5035698;28;20083;-56
2021/07/09 05:32:26;;;;;;;13.43;10.80;;;17.60;99.90;;;;;;5037795;28;20029;-57
2021/07/09 05:34:52;;;;;;;16.73;12.10;;;17.60;99.90;;;;;;5034904;28;20505;-57
2021/07/09 05:37:18;;;;;;;14.80;11.25;;;17.60;99.90;;;;;;5040285;28;20306;-57
2021/07/09 05:39:44;;;;;;;14.05;10.80;;;17.60;99.90;;;;;;5034837;28;20386;-57
2021/07/09 05:42:10;;;;;;;12.13;10.93;;;17.60;99.90;;;;;;5034467;28;20014;-57
2021/07/09 05:44:35;;;;;;;17.73;11.60;;;17.70;99.90;;;;;;5028798;28;20026;-57
2021/07/09 05:47:02;;;;;;;17.60;12.07;;;17.70;99.90;;;;;;5030865;28;20033;-57
2021/07/09 05:49:28;;;;;;;12.95;11.55;;;17.60;99.90;;;;;;5039900;28;20021;-57
2021/07/09 05:51:53;;;;;;;15.30;11.00;;;17.70;99.90;;;;;;5032173;28;20038;-57
2021/07/09 05:54:19;;;;;;;13.40;11.98;;;17.70;99.90;;;;;;5052155;28;20139;-57
2021/07/09 05:56:44;;;;;;;11.55;10.45;;;17.70;99.90;;;;;;5042052;28;20605;-57
2021/07/09 05:59:10;;;;;;;14.10;10.98;;;17.80;99.90;;;;;;5050700;28;20024;-56
2021/07/09 06:01:35;;;;;;;13.02;9.55;;;17.80;99.90;;;;;;5048927;28;20434;-57
2021/07/09 06:04:01;;;;;;;13.25;9.95;;;17.80;99.90;;;;;;5048681;28;20056;-57
2021/07/09 06:06:26;;;;;;;12.35;10.45;;;17.90;99.90;;;;;;5056165;28;20059;-57
2021/07/09 06:08:52;;;;;;;13.30;9.90;;;17.90;99.90;;;;;;5049138;28;20022;-56
2021/07/09 06:11:17;;;;;;;15.23;10.60;;;17.90;99.90;;;;;;5054167;28;20020;-57
2021/07/09 06:13:43;;;;;;;17.38;9.82;;;18.00;99.90;;;;;;5043095;28;20025;-57
2021/07/09 06:16:08;;;;;;;11.77;10.05;;;18.00;99.90;;;;;;5052329;28;20033;-57
2021/07/09 06:18:34;;;;;;;11.57;8.48;;;18.00;99.90;;;;;;5061800;28;20024;-57
2021/07/09 06:20:59;;;;;;;9.27;8.38;;;18.00;99.90;;;;;;5054065;28;20025;-57
2021/07/09 06:23:25;;;;;;;11.43;10.05;;;18.10;99.90;;;;;;5064773;28;20035;-57
2021/07/09 06:25:51;;;;;;;11.60;9.70;;;18.00;99.90;;;;;;5060344;28;20647;-56
2021/07/09 06:28:17;;;;;;;11.75;8.48;;;18.00;99.90;;;;;;5049689;28;20428;-57
2021/07/09 06:30:42;;;;;;;13.65;8.90;;;18.00;99.90;;;;;;5061922;28;20024;-57
2021/07/09 06:33:09;;;;;;;10.27;8.75;;;18.10;99.90;;;;;;5060752;28;20021;-57
2021/07/09 06:35:38;;;;;;;12.10;8.43;;;18.10;99.90;;;;;;5061151;28;20048;-57
2021/07/09 06:38:05;;;;;;;10.23;8.88;;;18.10;99.90;;;;;;5059194;28;20700;-57
2021/07/09 06:40:30;;;;;;;10.43;8.75;;;18.10;99.90;;;;;;5061714;28;20035;-57
2021/07/09 06:42:56;;;;;;;12.95;9.25;;;18.10;99.90;;;;;;5044520;28;20512;-57
2021/07/09 06:45:21;;;;;;;8.32;7.53;;;18.10;99.90;;;;;;5047502;28;20028;-57
2021/07/09 06:47:47;;;;;;;13.93;9.27;;;18.20;99.90;;;;;;5033557;28;20029;-57
2021/07/09 06:50:13;;;;;;;10.55;8.70;;;18.20;99.90;;;;;;5056122;28;20027;-57
2021/07/09 06:52:40;;;;;;;9.57;8.57;;;18.20;99.90;;;;;;5034734;28;20029;-57
2021/07/09 06:55:06;;;;;;;9.13;8.23;;;18.30;99.90;;;;;;5042073;28;20517;-57
2021/07/09 06:57:32;;;;;;;10.80;9.68;;;18.40;99.90;;;;;;5039311;28;20026;-57
2021/07/09 06:59:58;;;;;;;12.43;8.52;;;18.60;99.90;;;;;;5045420;28;20017;-57
2021/07/09 07:02:23;;;;;;;10.52;8.73;;;18.70;99.90;;;;;;5045938;28;20043;-57
2021/07/09 07:04:50;;;;;;;12.68;8.77;;;18.90;99.90;;;;;;5046084;28;20035;-57
2021/07/09 07:07:16;;;;;;;11.85;8.25;;;18.90;99.90;;;;;;5053504;28;20028;-57
2021/07/09 07:09:41;;;;;;;9.10;8.05;;;19.00;99.90;;;;;;5029501;28;20032;-57
2021/07/09 07:12:08;;;;;;;10.23;8.63;;;19.00;99.90;;;;;;5045514;28;20048;-57
2021/07/09 07:14:35;;;;;;;14.25;10.00;;;19.10;99.90;;;;;;5038936;28;20033;-57
2021/07/09 07:17:01;;;;;;;10.38;8.88;;;19.20;99.90;;;;;;5048327;28;20422;-57
2021/07/09 07:19:26;;;;;;;11.45;8.52;;;19.20;99.90;;;;;;5056153;28;20539;-57
2021/07/09 07:21:53;;;;;;;9.50;8.60;;;19.20;99.90;;;;;;5063701;28;20028;-57
2021/07/09 07:24:19;;;;;;;31.42;23.45;;;19.10;99.90;;;;;;5053399;28;20017;-57
2021/07/09 07:26:44;;;;;;;23.55;17.25;;;19.00;99.90;;;;;;5063584;28;20809;-57
2021/07/09 07:29:10;;;;;;;12.57;9.10;;;19.10;99.90;;;;;;5063002;28;20036;-57
2021/07/09 07:31:35;;;;;;;10.43;8.30;;;19.00;99.90;;;;;;5063098;28;20562;-57
2021/07/09 07:34:01;;;;;;;8.35;7.22;;;19.00;99.90;;;;;;5058872;28;20020;-57
2021/07/09 07:36:26;;;;;;;11.10;9.07;;;19.00;99.90;;;;;;5055242;28;20025;-57
2021/07/09 07:38:52;;;;;;;18.33;9.00;;;18.90;99.90;;;;;;5028394;28;20030;-57
2021/07/09 07:41:19;;;;;;;10.15;7.63;;;18.90;99.90;;;;;;5045021;28;20032;-57
2021/07/09 07:43:45;;;;;;;10.93;7.88;;;18.90;99.90;;;;;;5036067;28;20013;-57
2021/07/09 07:46:11;;;;;;;11.13;8.50;;;18.90;99.90;;;;;;5049682;28;20032;-57
2021/07/09 07:48:36;;;;;;;11.85;8.90;;;18.80;99.90;;;;;;5048463;28;20025;-57
2021/07/09 07:51:02;;;;;;;9.73;8.70;;;18.80;99.90;;;;;;5051042;28;20672;-57
2021/07/09 07:53:28;;;;;;;10.52;8.02;;;18.70;99.90;;;;;;5039821;28;20032;-57
2021/07/09 07:55:53;;;;;;;11.13;8.85;;;18.70;99.90;;;;;;5049220;28;20103;-57
2021/07/09 07:58:19;;;;;;;13.90;8.90;;;18.70;99.90;;;;;;5047905;28;20517;-57
2021/07/09 08:00:44;;;;;;;11.23;8.40;;;18.70;99.90;;;;;;5049223;28;20027;-57
2021/07/09 08:03:10;;;;;;;11.45;8.35;;;18.70;99.90;;;;;;5046330;28;20049;-57
2021/07/09 08:05:36;;;;;;;14.13;9.30;;;18.70;99.90;;;;;;5047989;28;20450;-57
2021/07/09 08:08:04;;;;;;;9.98;7.55;;;18.70;99.90;;;;;;5051312;28;20032;-57
2021/07/09 08:10:30;;;;;;;11.60;8.70;;;18.70;99.90;;;;;;5040046;28;20040;-57
2021/07/09 08:12:55;;;;;;;8.43;7.60;;;18.80;99.90;;;;;;5049934;28;20016;-57
2021/07/09 08:15:21;;;;;;;11.48;8.18;;;18.70;99.90;;;;;;5046381;28;20060;-56
2021/07/09 08:17:46;;;;;;;8.70;7.90;;;18.70;99.90;;;;;;5051847;28;20025;-56
2021/07/09 08:20:12;;;;;;;12.10;8.38;;;18.70;99.90;;;;;;5059421;28;20029;-57
2021/07/09 08:22:37;;;;;;;8.32;7.45;;;18.70;99.90;;;;;;5059811;28;20025;-56
2021/07/09 08:25:05;;;;;;;9.30;8.40;;;18.70;99.90;;;;;;5055183;28;20033;-56
2021/07/09 08:27:31;;;;;;;12.85;8.55;;;18.60;99.90;;;;;;5063076;28;20036;-56
2021/07/09 08:29:56;;;;;;;11.07;8.43;;;18.60;99.90;;;;;;5040776;28;20022;-56
2021/07/09 08:32:23;;;;;;;21.33;17.02;;;18.50;99.90;;;;;;5060739;28;20070;-56
2021/07/09 08:34:48;;;;;;;26.20;18.80;;;18.50;99.90;;;;;;5039742;28;20017;-56
2021/07/09 08:37:14;;;;;;;13.63;9.25;;;18.50;99.90;;;;;;5054191;28;20028;-57
2021/07/09 08:39:39;;;;;;;9.68;8.68;;;18.50;99.90;;;;;;5050525;28;20018;-56
2021/07/09 08:42:05;;;;;;;10.23;9.23;;;18.40;99.90;;;;;;5052669;28;20049;-57
2021/07/09 08:44:30;;;;;;;11.48;9.60;;;18.40;99.90;;;;;;5052429;28;20036;-56
2021/07/09 08:46:57;;;;;;;12.55;8.93;;;18.30;99.90;;;;;;5040362;28;20029;-57
2021/07/09 08:49:23;;;;;;;11.52;9.15;;;18.40;99.90;;;;;;5059725;28;20504;-56
2021/07/09 08:51:49;;;;;;;16.52;9.32;;;18.30;99.90;;;;;;5040120;28;20029;-57
2021/07/09 08:54:17;;;;;;;14.93;10.00;;;18.30;99.90;;;;;;5053438;28;20039;-57
2021/07/09 08:56:44;;;;;;;11.43;9.30;;;18.20;99.90;;;;;;5045208;28;20021;-56
2021/07/09 08:59:09;;;;;;;12.00;8.80;;;18.20;99.90;;;;;;5053546;28;20013;-56
2021/07/09 09:01:58;;;;;;;13.40;9.75;;;18.20;99.90;;;;;;5052540;28;20027;-57
2021/07/09 09:04:29;;;;;;;11.25;8.70;;;18.30;99.90;;;;;;5042875;28;20072;-56
2021/07/09 09:06:58;;;;;;;10.02;7.78;;;18.30;99.90;;;;;;5054357;28;20549;-56
2021/07/09 09:09:24;;;;;;;12.70;8.68;;;18.30;99.90;;;;;;5045491;28;20024;-56
2021/07/09 09:12:03;;;;;;;10.40;7.28;;;18.30;99.90;;;;;;5050697;28;20395;-57
2021/07/09 09:14:29;;;;;;;10.13;8.02;;;18.40;99.90;;;;;;5047387;28;20057;-57
2021/07/09 09:16:54;;;;;;;9.65;8.55;;;18.40;99.90;;;;;;5054653;28;20071;-57
2021/07/09 09:19:21;;;;;;;11.30;8.10;;;18.40;99.90;;;;;;5057520;28;20043;-57
2021/07/09 09:22:06;;;;;;;10.18;7.97;;;18.40;99.90;;;;;;5063489;28;20116;-57
2021/07/09 09:24:32;;;;;;;11.38;8.30;;;18.50;99.90;;;;;;5057267;28;20021;-57
2021/07/09 09:26:58;;;;;;;11.15;9.63;;;18.50;99.90;;;;;;5066033;28;20017;-56
2021/07/09 09:29:26;;;;;;;15.38;7.60;;;18.40;99.90;;;;;;5059062;28;20109;-57
2021/07/09 09:31:56;;;;;;;7.97;7.18;;;18.40;99.90;;;;;;5066666;28;20021;-57
2021/07/09 09:34:45;;;;;;;9.27;7.05;;;18.40;99.90;;;;;;5056446;28;20028;-57
2021/07/09 09:37:13;;;;;;;11.65;7.20;;;18.40;99.90;;;;;;5060680;28;20040;-58
2021/07/09 09:39:41;;;;;;;8.35;7.47;;;18.40;99.90;;;;;;5061459;28;20025;-57
2021/07/09 09:42:23;;;;;;;7.00;6.32;;;18.40;99.90;;;;;;5060609;28;20367;-57
2021/07/09 09:44:52;;;;;;;11.88;7.53;;;18.40;99.90;;;;;;5060758;28;20020;-57
2021/07/09 09:47:20;;;;;;;8.18;6.22;;;18.30;99.90;;;;;;5048360;28;20100;-57
2021/07/09 09:49:51;;;;;;;8.27;6.22;;;18.30;99.90;;;;;;5061867;28;20028;-57
2021/07/09 09:52:39;;;;;;;10.13;6.15;;;18.30;99.90;;;;;;5048730;28;20052;-56
2021/07/09 09:55:11;;;;;;;7.47;6.28;;;18.40;99.90;;;;;;5059771;28;20025;-57
2021/07/09 09:57:38;;;;;;;8.02;6.22;;;18.40;99.90;;;;;;5062551;28;20033;-56
2021/07/09 10:00:09;;;;;;;7.35;6.30;;;18.50;99.90;;;;;;5060773;28;20619;-56
2021/07/09 10:02:36;;;;;;;9.45;6.40;;;18.60;99.90;;;;;;5062636;28;20036;-57
2021/07/09 10:05:05;;;;;;;7.32;6.05;;;18.70;99.90;;;;;;5060933;28;20103;-57
2021/07/09 10:07:35;;;;;;;7.72;6.18;;;18.70;99.90;;;;;;5058763;28;20032;-57
2021/07/09 10:10:01;;;;;;;8.48;5.05;;;18.70;99.90;;;;;;5054524;28;20035;-57
2021/07/09 10:12:29;;;;;;;7.60;5.70;;;18.70;99.90;;;;;;5052410;28;20033;-56
2021/07/09 10:14:56;;;;;;;9.75;6.38;;;18.80;99.90;;;;;;5056454;28;20036;-57
2021/07/09 10:17:25;;;;;;;7.30;5.72;;;18.70;99.90;;;;;;5051407;28;20052;-56
2021/07/09 10:19:53;;;;;;;11.23;5.75;;;18.70;99.90;;;;;;5057377;28;20029;-57
2021/07/09 10:22:19;;;;;;;7.88;4.88;;;18.80;99.90;;;;;;5053163;28;20082;-57
2021/07/09 10:24:49;;;;;;;7.45;5.80;;;18.80;99.90;;;;;;5042575;28;20048;-57
2021/07/09 10:27:22;;;;;;;7.57;6.38;;;18.70;99.90;;;;;;5050173;28;20024;-57
2021/07/09 10:29:49;;;;;;;8.52;6.38;;;18.70;99.90;;;;;;5046917;28;20076;-57
2021/07/09 10:32:32;;;;;;;5.93;5.13;;;18.70;99.90;;;;;;5049673;28;20029;-57
2021/07/09 10:34:57;;;;;;;8.25;5.65;;;18.70;99.90;;;;;;5042445;28;20025;-57
2021/07/09 10:37:28;;;;;;;8.82;5.97;;;18.80;99.90;;;;;;5038334;28;20032;-57
2021/07/09 10:40:03;;;;;;;7.32;5.25;;;18.90;99.90;;;;;;5047384;28;20475;-57
2021/07/09 10:42:31;;;;;;;9.07;5.55;;;19.00;99.90;;;;;;5042205;28;20017;-57
2021/07/09 10:45:12;;;;;;;10.15;6.30;;;19.00;99.90;;;;;;5049425;28;20025;-57
2021/07/09 10:47:53;;;;;;;7.20;5.00;;;19.20;99.90;;;;;;5034863;28;20025;-57
2021/07/09 10:50:39;;;;;;;8.57;5.93;;;19.30;99.90;;;;;;5047282;28;20025;-57
2021/07/09 10:53:10;;;;;;;9.15;6.43;;;19.20;99.90;;;;;;5041401;28;20156;-56
2021/07/09 10:55:49;;;;;;;12.25;6.55;;;19.10;99.90;;;;;;5047946;28;20036;-57
2021/07/09 10:58:19;;;;;;;11.13;5.78;;;19.00;99.90;;;;;;5040394;28;20491;-57
2021/07/09 11:00:45;;;;;;;10.38;6.90;;;19.00;99.90;;;;;;5051366;28;20033;-57
2021/07/09 11:03:12;;;;;;;8.77;6.63;;;19.10;99.90;;;;;;5045001;28;20021;-57
2021/07/09 11:06:01;;;;;;;7.95;7.15;;;18.90;99.90;;;;;;5054212;28;20024;-57
2021/07/09 11:08:32;;;;;;;10.18;7.45;;;18.90;99.90;;;;;;5042169;28;20020;-57
2021/07/09 11:11:12;;;;;;;7.68;6.90;;;18.90;99.90;;;;;;5040265;28;20492;-57
2021/07/09 11:13:41;;;;;;;9.65;6.82;;;18.90;99.90;;;;;;5050778;28;20027;-57
2021/07/09 11:16:21;;;;;;;6.38;5.78;;;18.80;99.90;;;;;;5045134;28;20079;-57
2021/07/09 11:19:07;;;;;;;9.80;7.15;;;18.80;99.90;;;;;;5038412;28;20032;-56
2021/07/09 11:21:33;;;;;;;6.72;5.80;;;18.70;99.90;;;;;;5053702;28;20094;-56
2021/07/09 11:24:01;;;;;;;7.80;5.80;;;18.80;99.90;;;;;;5046938;28;20033;-57
2021/07/09 11:26:31;;;;;;;8.50;6.47;;;18.70;99.90;;;;;;5054708;28;20028;-57
2021/07/09 11:28:57;;;;;;;9.43;5.93;;;18.80;99.90;;;;;;5046679;28;20033;-56
2021/07/09 11:31:35;;;;;;;8.32;5.82;;;18.80;99.90;;;;;;5060609;28;20043;-56
2021/07/09 11:34:20;;;;;;;10.80;6.25;;;18.70;99.90;;;;;;5051649;28;20029;-57
2021/07/09 11:36:56;;;;;;;7.47;6.00;;;18.70;99.90;;;;;;5052490;28;20362;-56
2021/07/09 11:39:36;;;;;;;6.90;6.22;;;18.60;99.90;;;;;;5048179;28;20495;-57
2021/07/09 11:42:18;;;;;;;7.32;6.35;;;18.50;99.90;;;;;;5033051;28;20064;-57
2021/07/09 11:44:45;;;;;;;7.50;6.80;;;18.30;99.90;;;;;;5053574;28;20033;-56
2021/07/09 11:47:28;;;;;;;9.43;7.05;;;18.30;99.90;;;;;;5037034;28;20355;-56
2021/07/09 11:49:58;;;;;;;9.48;7.03;;;18.20;99.90;;;;;;5031220;28;20025;-56
2021/07/09 11:52:28;;;;;;;10.37;7.33;;;18.20;99.90;;;;;;5037868;28;20740;-56
2021/07/09 11:54:55;;;;;;;7.90;7.10;;;18.10;99.90;;;;;;5031293;28;20314;-57
2021/07/09 11:57:26;;;;;;;10.18;8.13;;;18.10;99.90;;;;;;5035213;28;20279;-56
2021/07/09 11:59:54;;;;;;;8.95;7.53;;;18.10;99.90;;;;;;5029750;28;20368;-57
2021/07/09 12:02:30;;;;;;;11.05;7.80;;;18.10;99.90;;;;;;5045384;28;20020;-56
2021/07/09 12:04:58;;;;;;;9.25;7.95;;;18.00;99.90;;;;;;5036993;28;20021;-57
2021/07/09 12:07:28;;;;;;;11.88;8.98;;;18.00;99.90;;;;;;5061418;28;20032;-56
2021/07/09 12:10:15;;;;;;;9.93;7.93;;;18.00;99.90;;;;;;5040448;28;20022;-57
2021/07/09 12:12:43;;;;;;;9.90;8.75;;;18.00;99.90;;;;;;5052857;28;20020;-56
2021/07/09 12:15:15;;;;;;;11.10;9.05;;;18.00;99.90;;;;;;5044645;28;20026;-56
2021/07/09 12:17:44;;;;;;;10.70;9.50;;;18.10;99.90;;;;;;5050658;28;20029;-57
2021/07/09 12:20:16;;;;;;;14.38;10.43;;;18.10;99.90;;;;;;5061498;28;20017;-57
2021/07/09 12:22:46;;;;;;;11.63;10.40;;;18.10;99.90;;;;;;5056114;28;20406;-56
2021/07/09 12:25:17;;;;;;;11.40;10.23;;;18.20;99.90;;;;;;5046563;28;20033;-57
2021/07/09 12:27:43;;;;;;;18.33;10.77;;;18.30;99.90;;;;;;5047578;28;20079;-57
2021/07/09 12:30:14;;;;;;;12.13;9.90;;;18.40;99.90;;;;;;5041104;28;20027;-57
2021/07/09 12:32:43;;;;;;;16.02;10.57;;;18.40;99.90;;;;;;5032580;28;20018;-57
2021/07/09 12:35:11;;;;;;;11.40;10.30;;;18.40;99.90;;;;;;5042778;28;20068;-57
2021/07/09 12:37:37;;;;;;;14.70;10.63;;;18.40;99.90;;;;;;5035371;28;20364;-57
2021/07/09 12:40:11;;;;;;;15.93;10.75;;;18.40;99.90;;;;;;5042226;28;20026;-57